createdAt,value
2023-03-27T06:56:37.576Z,11.90
2023-03-27T06:59:04.261Z,12.02
2023-03-27T07:01:30.947Z,12.02
2023-03-27T07:03:58.818Z,11.23
2023-03-27T07:06:25.532Z,11.25
2023-03-27T07:08:52.274Z,12.25
2023-03-27T07:11:19.287Z,11.82
2023-03-27T07:13:49.159Z,11.35
2023-03-27T07:16:15.838Z,11.63
2023-03-27T07:18:42.527Z,12.30
2023-03-27T07:21:09.656Z,12.07
2023-03-27T07:23:36.386Z,12.70
2023-03-27T07:26:03.687Z,11.85
2023-03-27T07:28:31.148Z,10.43
2023-03-27T07:30:57.922Z,11.68
2023-03-27T07:33:25.003Z,9.32
2023-03-27T07:35:51.805Z,9.48
2023-03-27T07:38:18.888Z,9.63
2023-03-27T07:40:50.127Z,9.73
2023-03-27T07:43:16.815Z,9.63
2023-03-27T07:45:45.217Z,9.85
2023-03-27T07:48:16.259Z,8.48
2023-03-27T07:50:43.603Z,8.82
2023-03-27T07:53:32.383Z,7.78
2023-03-27T07:56:03.958Z,7.25
2023-03-27T07:58:30.732Z,7.47
2023-03-27T08:01:02.809Z,7.53
2023-03-27T08:03:31.124Z,7.55
2023-03-27T08:06:00.027Z,8.73
2023-03-27T08:08:28.011Z,8.32
2023-03-27T08:10:57.005Z,8.27
2023-03-27T08:13:24.032Z,7.88
2023-03-27T08:15:50.705Z,8.35
2023-03-27T08:18:18.697Z,8.65
2023-03-27T08:20:45.779Z,8.77
2023-03-27T08:23:12.374Z,7.93
2023-03-27T08:25:39.033Z,8.75
2023-03-27T08:28:06.234Z,8.45
2023-03-27T08:30:33.093Z,8.60
2023-03-27T08:33:00.447Z,8.20
2023-03-27T08:35:27.294Z,7.45
2023-03-27T08:37:54.113Z,7.68
2023-03-27T08:40:28.268Z,6.53
2023-03-27T08:43:01.950Z,5.85
2023-03-27T08:45:40.610Z,5.95
2023-03-27T08:48:15.027Z,6.75
2023-03-27T08:50:46.666Z,5.80
2023-03-27T08:53:50.810Z,7.18
2023-03-27T08:56:18.697Z,5.93
2023-03-27T08:58:46.102Z,6.28
2023-03-27T09:01:49.963Z,5.88
2023-03-27T09:04:38.705Z,5.82
2023-03-27T09:07:27.515Z,8.55
2023-03-27T09:10:15.402Z,8.88
2023-03-27T09:12:54.528Z,8.20
2023-03-27T09:15:45.044Z,7.10
2023-03-27T09:18:19.317Z,8.32
2023-03-27T09:21:00.787Z,7.85
2023-03-27T09:23:36.119Z,8.07
2023-03-27T09:26:12.682Z,7.63
2023-03-27T09:28:56.159Z,7.78
2023-03-27T09:31:22.716Z,8.10
2023-03-27T09:33:49.417Z,7.35
2023-03-27T09:36:16.086Z,8.40
2023-03-27T09:38:50.580Z,8.38
2023-03-27T09:41:34.285Z,7.85
2023-03-27T09:44:25.470Z,7.43
2023-03-27T09:46:58.922Z,7.10
2023-03-27T09:49:26.992Z,6.97
2023-03-27T09:51:55.146Z,6.55
2023-03-27T09:57:11.534Z,7.00
2023-03-27T09:59:51.475Z,6.55
2023-03-27T10:02:27.084Z,6.03
2023-03-27T10:05:19.216Z,6.05
2023-03-27T10:07:46.337Z,5.63
2023-03-27T10:10:17.556Z,5.55
2023-03-27T10:12:50.804Z,5.15
2023-03-27T10:15:38.715Z,5.60
2023-03-27T10:21:07.019Z,4.78
2023-03-27T10:23:45.317Z,3.40
2023-03-27T10:26:17.425Z,1.42
2023-03-27T10:28:49.113Z,1.88
2023-03-27T10:31:31.205Z,1.80
2023-03-27T10:34:08.235Z,2.08
2023-03-27T10:36:37.711Z,1.95
2023-03-27T10:39:11.813Z,1.92
2023-03-27T10:41:39.688Z,1.58
2023-03-27T10:44:19.545Z,1.75
2023-03-27T10:46:47.933Z,2.67
2023-03-27T10:49:25.636Z,1.92
2023-03-27T10:52:34.739Z,1.63
2023-03-27T10:55:01.366Z,1.80
2023-03-27T10:57:32.859Z,1.80
2023-03-27T11:00:18.671Z,1.58
2023-03-27T11:03:11.241Z,2.03
2023-03-27T11:05:43.375Z,1.48
2023-03-27T11:08:21.769Z,1.73
2023-03-27T11:10:49.560Z,1.58
2023-03-27T11:13:23.295Z,1.65
2023-03-27T11:16:01.466Z,1.48
2023-03-27T11:18:34.613Z,1.52
2023-03-27T11:21:12.798Z,3.80
2023-03-27T11:23:48.227Z,1.63
2023-03-27T11:26:16.517Z,1.70
2023-03-27T11:28:49.672Z,1.73
2023-03-27T11:31:40.922Z,1.63
2023-03-27T11:34:28.445Z,1.77
2023-03-27T11:39:56.982Z,1.30
2023-03-27T11:42:31.138Z,1.35
2023-03-27T11:44:58.811Z,0.73
2023-03-27T11:47:31.079Z,1.17
2023-03-27T11:50:17.257Z,0.85
2023-03-27T11:52:55.694Z,1.25
2023-03-27T11:58:16.880Z,1.02
2023-03-27T12:01:07.188Z,0.95
2023-03-27T12:03:55.750Z,1.15
2023-03-27T12:06:34.579Z,1.02
2023-03-27T12:09:15.985Z,1.45
2023-03-27T12:11:51.447Z,1.10
2023-03-27T12:14:40.473Z,0.80
2023-03-27T12:17:41.841Z,1.67
2023-03-27T12:20:33.368Z,1.55
2023-03-27T12:23:02.919Z,1.65
2023-03-27T12:25:41.391Z,1.17
2023-03-27T12:28:32.786Z,1.08
2023-03-27T12:31:16.959Z,2.05
2023-03-27T12:33:55.711Z,0.90
2023-03-27T12:36:24.719Z,1.50
2023-03-27T12:38:54.233Z,1.83
2023-03-27T12:41:25.062Z,1.23
2023-03-27T12:44:00.424Z,1.30
2023-03-27T12:46:28.369Z,1.00
2023-03-27T12:49:10.719Z,1.38
2023-03-27T12:51:44.582Z,1.15
2023-03-27T12:54:27.856Z,1.10
2023-03-27T12:57:15.866Z,1.20
2023-03-27T12:59:48.762Z,1.02
2023-03-27T13:02:16.025Z,0.90
2023-03-27T13:05:10.713Z,0.90
2023-03-27T13:08:07.350Z,1.45
2023-03-27T13:10:50.569Z,0.88
2023-03-27T13:13:47.417Z,0.98
2023-03-27T13:16:34.004Z,0.60
2023-03-27T13:19:22.992Z,0.80
2023-03-27T13:22:16.215Z,1.20
2023-03-27T13:25:08.724Z,0.75
2023-03-27T13:27:52.332Z,0.80
2023-03-27T13:30:42.487Z,1.00
2023-03-27T13:33:24.537Z,1.25
2023-03-27T13:36:12.490Z,1.55
2023-03-27T13:38:51.950Z,1.67
2023-03-27T13:41:43.353Z,1.70
2023-03-27T13:44:16.479Z,1.42
2023-03-27T13:46:50.359Z,1.58
2023-03-27T13:49:49.030Z,1.17
2023-03-27T13:52:40.723Z,1.38
2023-03-27T13:55:19.385Z,1.05
2023-03-27T13:58:02.855Z,1.10
2023-03-27T14:01:02.372Z,1.00
2023-03-27T14:03:31.873Z,1.17
2023-03-27T14:06:40.669Z,1.08
2023-03-27T14:09:10.825Z,1.63
2023-03-27T14:11:49.689Z,1.50
2023-03-27T14:14:23.050Z,1.40
2023-03-27T14:16:59.610Z,1.45
2023-03-27T14:20:01.302Z,1.30
2023-03-27T14:22:48.304Z,1.48
2023-03-27T14:25:19.833Z,1.80
2023-03-27T14:27:51.180Z,1.10
2023-03-27T14:30:20.830Z,1.48
2023-03-27T14:32:49.100Z,1.13
2023-03-27T14:35:27.583Z,0.98
2023-03-27T14:38:00.299Z,1.20
2023-03-27T14:40:35.265Z,1.33
2023-03-27T14:43:05.345Z,1.25
2023-03-27T14:45:35.683Z,1.00
2023-03-27T14:48:25.813Z,1.17
2023-03-27T14:50:55.118Z,1.27
2023-03-27T14:53:27.775Z,1.42
2023-03-27T14:55:56.390Z,1.00
2023-03-27T15:00:58.066Z,1.30
2023-03-27T15:03:30.218Z,1.40
2023-03-27T15:06:21.070Z,2.03
2023-03-27T15:08:52.383Z,1.63
2023-03-27T15:11:25.821Z,1.92
2023-03-27T15:13:53.311Z,2.10
2023-03-27T15:16:25.931Z,2.53
2023-03-27T15:18:58.688Z,1.02
2023-03-27T15:22:16.806Z,1.80
2023-03-27T15:24:50.916Z,1.13
2023-03-27T15:27:27.665Z,1.55
2023-03-27T15:30:15.428Z,1.83
2023-03-27T15:32:50.636Z,1.40
2023-03-27T15:35:21.556Z,1.23
2023-03-27T15:37:48.541Z,2.00
2023-03-27T15:40:26.670Z,1.48
2023-03-27T15:42:54.569Z,1.42
2023-03-27T15:45:24.014Z,2.60
2023-03-27T15:48:06.970Z,2.58
2023-03-27T15:50:34.063Z,2.45
2023-03-27T15:53:01.885Z,1.42
2023-03-27T15:55:37.657Z,1.37
2023-03-27T15:58:13.709Z,1.52
2023-03-27T16:00:49.025Z,1.40
2023-03-27T16:03:21.765Z,1.33
2023-03-27T16:05:51.442Z,1.20
2023-03-27T16:08:48.965Z,1.48
2023-03-27T16:11:38.492Z,1.10
2023-03-27T16:14:05.284Z,1.25
2023-03-27T16:16:36.865Z,1.50
2023-03-27T16:19:11.357Z,1.92
2023-03-27T16:21:37.944Z,1.15
2023-03-27T16:24:04.740Z,1.33
2023-03-27T16:26:32.361Z,1.00
2023-03-27T16:29:03.327Z,1.27
2023-03-27T16:31:30.018Z,2.13
2023-03-27T16:33:58.323Z,1.05
2023-03-27T16:36:30.995Z,1.10
2023-03-27T16:38:57.726Z,0.95
2023-03-27T16:41:24.537Z,1.17
2023-03-27T16:43:51.185Z,1.75
2023-03-27T16:46:26.685Z,1.42
2023-03-27T16:48:54.690Z,1.73
2023-03-27T16:51:23.468Z,1.70
2023-03-27T16:56:18.179Z,1.38
2023-03-27T16:58:44.977Z,1.60
2023-03-27T17:01:12.909Z,1.70
2023-03-27T17:03:43.271Z,1.33
2023-03-27T17:06:12.687Z,1.42
2023-03-27T17:08:42.299Z,1.58
2023-03-27T17:11:11.315Z,1.92
2023-03-27T17:13:41.562Z,1.77
2023-03-27T17:16:09.668Z,1.65
2023-03-27T17:18:36.532Z,1.00
2023-03-27T17:21:03.156Z,1.58
2023-03-27T17:23:29.965Z,1.23
2023-03-27T17:26:00.962Z,1.42
2023-03-27T17:28:28.317Z,0.82
2023-03-27T17:31:04.661Z,2.90
2023-03-27T17:33:32.978Z,2.55
2023-03-27T17:36:00.137Z,1.45
2023-03-27T17:38:27.549Z,1.75
2023-03-27T17:40:54.178Z,3.53
2023-03-27T17:43:21.294Z,2.00
2023-03-27T17:45:49.135Z,1.40
2023-03-27T17:48:15.949Z,1.40
2023-03-27T17:50:45.223Z,1.30
2023-03-27T17:53:16.225Z,2.10
2023-03-27T17:55:43.395Z,2.50
2023-03-27T17:58:10.265Z,4.18
2023-03-27T18:00:39.294Z,3.65
2023-03-27T18:03:06.706Z,2.83
2023-03-27T18:05:38.091Z,1.38
2023-03-27T18:08:06.687Z,1.75
2023-03-27T18:10:35.442Z,2.22
2023-03-27T18:13:02.652Z,1.42
2023-03-27T18:15:30.055Z,2.05
2023-03-27T18:17:56.625Z,1.88
2023-03-27T18:20:23.369Z,2.30
2023-03-27T18:22:50.418Z,2.30
2023-03-27T18:25:17.175Z,2.60
2023-03-27T18:27:44.965Z,2.45
2023-03-27T18:30:14.557Z,2.25
2023-03-27T18:32:42.735Z,1.55
2023-03-27T18:35:15.796Z,1.60
2023-03-27T18:37:43.857Z,3.90
2023-03-27T18:40:13.537Z,10.07
2023-03-27T18:42:41.014Z,3.15
2023-03-27T18:45:08.817Z,9.82
2023-03-27T18:47:36.598Z,4.65
2023-03-27T18:50:07.220Z,6.90
2023-03-27T18:52:33.895Z,2.85
2023-03-27T18:55:00.674Z,2.53
2023-03-27T18:57:27.812Z,3.85
2023-03-27T18:59:55.232Z,1.75
2023-03-27T19:02:22.088Z,2.03
2023-03-27T19:04:48.824Z,1.83
2023-03-27T19:07:16.599Z,2.20
2023-03-27T19:09:44.285Z,1.90
2023-03-27T19:12:12.181Z,1.70
2023-03-27T19:14:38.955Z,1.88
2023-03-27T19:17:05.712Z,1.92
2023-03-27T19:19:33.540Z,2.17
2023-03-27T19:22:00.136Z,1.20
2023-03-27T19:24:26.898Z,1.17
2023-03-27T19:26:53.519Z,1.38
2023-03-27T19:29:20.259Z,1.48
2023-03-27T19:31:46.913Z,1.58
2023-03-27T19:34:13.672Z,1.65
2023-03-27T19:36:40.804Z,1.80
2023-03-27T19:39:08.206Z,2.15
2023-03-27T19:41:34.898Z,1.45
2023-03-27T19:44:01.636Z,1.58
2023-03-27T19:46:29.365Z,1.48
2023-03-27T19:48:56.193Z,1.35
2023-03-27T19:51:22.929Z,2.00
2023-03-27T19:53:49.649Z,1.35
2023-03-27T19:56:16.280Z,1.50
2023-03-27T19:58:42.919Z,1.75
2023-03-27T20:01:10.088Z,1.38
2023-03-27T20:03:38.584Z,1.10
2023-03-27T20:06:11.828Z,2.17
2023-03-27T20:08:40.876Z,1.60
2023-03-27T20:11:07.810Z,4.32
2023-03-27T20:13:49.012Z,3.70
2023-03-27T20:16:24.252Z,3.30
2023-03-27T20:19:04.571Z,3.53
2023-03-27T20:21:37.926Z,1.45
2023-03-27T20:24:05.858Z,1.55
2023-03-27T20:26:39.218Z,1.60
2023-03-27T20:29:12.424Z,1.48
2023-03-27T20:31:40.027Z,1.30
2023-03-27T20:34:07.756Z,1.15
2023-03-27T20:36:35.202Z,1.52
2023-03-27T20:39:04.689Z,1.55
2023-03-27T20:41:31.790Z,1.95
2023-03-27T20:43:59.012Z,1.95
2023-03-27T20:46:30.490Z,1.15
2023-03-27T20:48:57.518Z,1.77
2023-03-27T20:51:24.826Z,1.63
2023-03-27T20:53:55.986Z,1.20
2023-03-27T20:56:24.125Z,1.27
2023-03-27T20:58:51.642Z,1.70
2023-03-27T21:01:27.192Z,1.80
2023-03-27T21:03:58.185Z,1.90
2023-03-27T21:06:25.802Z,1.63
2023-03-27T21:08:52.421Z,1.77
2023-03-27T21:11:19.115Z,1.75
2023-03-27T21:13:45.904Z,1.58
2023-03-27T21:16:12.505Z,1.80
2023-03-27T21:18:39.203Z,1.40
2023-03-27T21:21:06.191Z,1.40
2023-03-27T21:23:34.487Z,1.10
2023-03-27T21:26:01.750Z,1.13
2023-03-27T21:28:28.580Z,1.40
2023-03-27T21:30:55.286Z,1.50
2023-03-27T21:33:22.098Z,1.30
2023-03-27T21:35:49.315Z,1.17
2023-03-27T21:38:17.583Z,1.20
2023-03-27T21:40:46.444Z,1.00
2023-03-27T21:43:13.358Z,1.10
2023-03-27T21:45:39.968Z,1.17
2023-03-27T21:48:06.922Z,5.35
2023-03-27T21:50:33.570Z,1.35
2023-03-27T21:53:00.271Z,0.90
2023-03-27T21:55:26.825Z,1.33
2023-03-27T21:57:53.438Z,1.00
2023-03-27T22:00:20.180Z,1.20
2023-03-27T22:02:46.987Z,1.10
2023-03-27T22:05:13.952Z,1.15
2023-03-27T22:07:40.541Z,0.90
2023-03-27T22:10:07.505Z,0.93
2023-03-27T22:12:35.767Z,1.10
2023-03-27T22:15:02.627Z,1.00
2023-03-27T22:17:29.365Z,0.98
2023-03-27T22:19:56.027Z,1.02
2023-03-27T22:22:22.631Z,1.00
2023-03-27T22:24:49.279Z,0.90
2023-03-27T22:27:16.496Z,1.13
2023-03-27T22:29:43.276Z,1.08
2023-03-27T22:32:09.868Z,1.10
2023-03-27T22:34:36.556Z,1.00
2023-03-27T22:37:03.351Z,0.80
2023-03-27T22:39:29.953Z,1.10
2023-03-27T22:41:56.580Z,1.40
2023-03-27T22:44:23.196Z,1.20
2023-03-27T22:46:51.372Z,1.35
2023-03-27T22:49:18.109Z,1.58
2023-03-27T22:51:44.752Z,1.17
2023-03-27T22:54:11.351Z,1.00
2023-03-27T22:56:37.948Z,1.20
2023-03-27T22:59:04.556Z,1.05
2023-03-27T23:01:31.293Z,0.95
2023-03-27T23:03:58.120Z,1.33
2023-03-27T23:06:26.289Z,1.15
2023-03-27T23:08:53.424Z,1.33
2023-03-27T23:11:20.654Z,1.30
2023-03-27T23:13:47.355Z,0.82
2023-03-27T23:16:14.406Z,1.00
2023-03-27T23:18:41.193Z,1.13
2023-03-27T23:21:13.073Z,1.23
2023-03-27T23:23:40.524Z,1.77
2023-03-27T23:26:08.555Z,1.00
2023-03-27T23:28:38.514Z,1.33
2023-03-27T23:31:07.828Z,1.25
2023-03-27T23:33:39.878Z,1.13
2023-03-27T23:36:09.895Z,1.10
2023-03-27T23:38:37.527Z,1.52
2023-03-27T23:41:06.216Z,1.05
2023-03-27T23:43:33.163Z,1.15
2023-03-27T23:45:59.960Z,1.17
2023-03-27T23:48:28.806Z,0.90
2023-03-27T23:50:57.014Z,1.10
2023-03-27T23:53:28.724Z,0.87
2023-03-27T23:55:57.323Z,1.23
2023-03-27T23:58:28.550Z,1.48
